Time;durP1;ratioP1;P1;durP2;ratioP2;P2;SDS_P1;SDS_P2;PMS_P1;PMS_P2;Temp;Humidity;BMP_temperature;BMP_pressure;BME280_temperature;BME280_humidity;BME280_pressure;Samples;Min_cycle;Max_cycle;Signal;HPM_P1;HPM_P2
2022/04/27 00:01:15;;;;;;;24.65;14.15;;;;;;;5.47;78.40;102272.00;5070805;28;20032;-58
2022/04/27 00:03:41;;;;;;;25.27;14.07;;;;;;;5.42;79.14;102271.06;5066853;28;20456;-58
2022/04/27 00:06:08;;;;;;;25.00;14.35;;;;;;;5.44;78.57;102269.72;5061795;28;20090;-59
2022/04/27 00:08:33;;;;;;;23.50;13.68;;;;;;;5.42;78.79;102266.38;5071339;28;20028;-59
2022/04/27 00:10:59;;;;;;;23.67;14.27;;;;;;;5.39;78.48;102272.34;5066733;28;20036;-57
2022/04/27 00:13:24;;;;;;;23.45;14.23;;;;;;;5.42;78.57;102271.88;5075442;28;20029;-58
2022/04/27 00:15:49;;;;;;;23.30;14.55;;;;;;;5.38;78.21;102269.84;5068085;28;20032;-59
2022/04/27 00:18:15;;;;;;;25.58;14.90;;;;;;;5.34;78.60;102258.50;5070883;28;20039;-59
2022/04/27 00:20:40;;;;;;;25.58;14.45;;;;;;;5.28;78.82;102263.03;5068749;28;20025;-59
2022/04/27 00:23:06;;;;;;;25.08;15.57;;;;;;;5.21;79.95;102262.28;5070676;28;20162;-58
2022/04/27 00:25:32;;;;;;;24.75;14.70;;;;;;;5.19;79.99;102252.63;5075080;28;20032;-58
2022/04/27 00:27:58;;;;;;;24.73;14.68;;;;;;;5.11;80.61;102259.28;5069503;28;20021;-58
2022/04/27 00:30:23;;;;;;;25.13;14.65;;;;;;;5.05;80.33;102261.06;5075157;28;20031;-59
2022/04/27 00:32:48;;;;;;;25.50;14.30;;;;;;;5.01;80.82;102262.56;5062087;28;20421;-57
2022/04/27 00:35:13;;;;;;;24.45;14.52;;;;;;;5.01;80.59;102265.31;5072871;28;20164;-59
2022/04/27 00:37:39;;;;;;;24.92;14.98;;;;;;;4.97;80.67;102269.63;5069026;28;20043;-58
2022/04/27 00:40:05;;;;;;;23.00;14.55;;;;;;;4.94;80.66;102270.06;5074587;28;20478;-58
2022/04/27 00:42:30;;;;;;;26.38;15.07;;;;;;;4.88;81.49;102265.53;5064163;28;20042;-57
2022/04/27 00:44:55;;;;;;;24.13;15.35;;;;;;;4.83;81.38;102261.56;5061653;28;20029;-57
2022/04/27 00:47:20;;;;;;;26.38;14.63;;;;;;;4.80;81.79;102272.16;5064822;28;20442;-57
2022/04/27 00:49:51;;;;;;;25.67;15.32;;;;;;;4.79;81.79;102263.13;5071292;28;20028;-58
2022/04/27 00:52:18;;;;;;;24.85;15.13;;;;;;;4.79;82.03;102260.38;5066901;28;20039;-58
2022/04/27 00:54:47;;;;;;;29.20;16.00;;;;;;;4.76;81.79;102263.56;5074353;28;20056;-59
2022/04/27 00:57:12;;;;;;;24.42;14.65;;;;;;;4.80;81.82;102266.69;5060667;28;20031;-58
2022/04/27 00:59:39;;;;;;;24.13;14.73;;;;;;;4.78;81.49;102268.81;5068925;28;20032;-58
2022/04/27 01:02:05;;;;;;;25.20;15.50;;;;;;;4.74;81.96;102268.44;5080751;28;20384;-57
2022/04/27 01:04:36;;;;;;;26.08;16.33;;;;;;;4.65;82.93;102267.94;5071339;28;20068;-58
2022/04/27 01:07:03;;;;;;;24.00;16.08;;;;;;;4.60;83.29;102264.22;5054678;28;20025;-57
2022/04/27 01:09:29;;;;;;;27.25;15.52;;;;;;;4.55;83.12;102280.50;5063092;28;20467;-57
2022/04/27 01:11:56;;;;;;;26.27;16.05;;;;;;;4.44;83.28;102266.50;5075072;28;20036;-58
2022/04/27 01:14:22;;;;;;;24.08;15.50;;;;;;;4.53;84.11;102275.25;5063030;28;20032;-58
2022/04/27 01:16:56;;;;;;;23.77;15.48;;;;;;;4.64;83.11;102279.97;5065570;28;20455;-58
2022/04/27 01:19:23;;;;;;;25.33;15.88;;;;;;;4.67;82.68;102284.16;5072102;28;20062;-59
2022/04/27 01:21:49;;;;;;;25.77;16.80;;;;;;;4.65;82.92;102286.28;5069305;28;20027;-59
2022/04/27 01:24:19;;;;;;;26.50;16.45;;;;;;;4.63;83.06;102294.75;5072140;28;20384;-58
2022/04/27 01:26:46;;;;;;;27.55;16.42;;;;;;;4.67;83.56;102292.38;5063687;28;20096;-57
2022/04/27 01:29:14;;;;;;;24.77;16.40;;;;;;;4.68;83.88;102283.09;5073764;28;20036;-57
2022/04/27 01:31:39;;;;;;;26.75;16.23;;;;;;;4.66;83.13;102297.03;5059280;28;20444;-57
2022/04/27 01:34:05;;;;;;;24.33;15.70;;;;;;;4.69;84.02;102293.00;5060667;28;20025;-57
2022/04/27 01:36:30;;;;;;;24.98;15.35;;;;;;;4.73;83.33;102293.38;5064755;28;20090;-58
2022/04/27 01:38:55;;;;;;;28.85;16.75;;;;;;;4.65;83.12;102300.00;5059362;28;20033;-58
2022/04/27 01:41:21;;;;;;;25.38;16.15;;;;;;;4.65;84.14;102300.00;5063635;28;20047;-58
2022/04/27 01:43:46;;;;;;;24.83;16.20;;;;;;;4.55;83.84;102296.94;5064228;28;20379;-59
2022/04/27 01:46:11;;;;;;;26.77;16.98;;;;;;;4.45;84.75;102294.75;5055544;28;20318;-56
2022/04/27 01:48:37;;;;;;;26.42;17.35;;;;;;;4.43;84.27;102302.38;5062413;28;20028;-58
2022/04/27 01:51:02;;;;;;;25.08;15.85;;;;;;;4.45;84.06;102301.06;5053564;28;20043;-58
2022/04/27 01:56:11;;;;;;;28.40;16.60;;;;;;;4.44;84.23;102298.56;5055392;28;20040;-58
2022/04/27 01:58:36;;;;;;;26.15;16.42;;;;;;;4.39;84.13;102304.72;5055941;28;20442;-58
2022/04/27 02:01:02;;;;;;;26.67;16.50;;;;;;;4.31;84.57;102303.13;5053627;28;20025;-58
2022/04/27 02:03:27;;;;;;;26.25;16.73;;;;;;;4.25;84.89;102308.69;5056890;28;20029;-58
2022/04/27 02:05:53;;;;;;;27.85;18.30;;;;;;;4.25;85.18;102303.22;5053336;28;20503;-58
2022/04/27 02:08:18;;;;;;;27.38;19.38;;;;;;;4.20;85.51;102302.00;5053838;28;20021;-58
2022/04/27 02:10:44;;;;;;;28.42;16.63;;;;;;;4.13;86.25;102301.22;5053725;28;20021;-58
2022/04/27 02:13:11;;;;;;;28.48;17.13;;;;;;;4.11;85.68;102310.75;5053411;28;20025;-57
2022/04/27 02:15:36;;;;;;;26.27;17.25;;;;;;;4.14;85.84;102311.13;5053071;28;20025;-58
2022/04/27 02:18:02;;;;;;;26.40;16.70;;;;;;;4.19;85.72;102311.28;5053215;28;20517;-58
2022/04/27 02:20:28;;;;;;;27.13;17.73;;;;;;;4.29;85.76;102318.13;5053589;28;20375;-59
2022/04/27 02:22:54;;;;;;;27.75;17.00;;;;;;;4.33;85.26;102319.34;5052751;28;20036;-58
2022/04/27 02:25:20;;;;;;;26.30;17.65;;;;;;;4.31;86.33;102318.75;5053084;28;20028;-58
2022/04/27 02:27:46;;;;;;;26.80;16.50;;;;;;;4.32;85.53;102325.91;5053015;28;20089;-58
2022/04/27 02:30:12;;;;;;;26.58;16.73;;;;;;;4.27;86.11;102323.84;5053020;28;20025;-57
2022/04/27 02:32:38;;;;;;;27.88;17.52;;;;;;;4.16;86.05;102322.66;5053253;28;20025;-58
2022/04/27 02:35:06;;;;;;;27.27;18.17;;;;;;;4.04;87.39;102328.06;5053017;28;20471;-57
2022/04/27 02:37:31;;;;;;;28.90;17.70;;;;;;;3.94;87.23;102330.47;5052831;28;20033;-58
2022/04/27 02:40:00;;;;;;;29.83;18.23;;;;;;;3.88;87.52;102325.91;5052708;28;20021;-58
2022/04/27 02:42:26;;;;;;;29.00;18.65;;;;;;;3.83;87.85;102321.09;5053138;28;20087;-58
2022/04/27 02:44:52;;;;;;;26.73;18.02;;;;;;;3.82;87.20;102326.81;5052741;28;20037;-57
2022/04/27 02:47:18;;;;;;;26.83;17.52;;;;;;;3.91;87.41;102328.19;5052690;28;20386;-57
2022/04/27 02:52:27;;;;;;;29.40;18.42;;;;;;;4.00;86.80;102326.84;5052963;28;20117;-57
2022/04/27 02:54:53;;;;;;;28.33;18.17;;;;;;;3.97;87.19;102329.22;5052741;28;20107;-57
2022/04/27 02:57:18;;;;;;;28.92;18.45;;;;;;;3.94;86.61;102333.22;5052545;28;20024;-57
2022/04/27 02:59:44;;;;;;;27.55;18.05;;;;;;;3.88;87.44;102326.72;5052762;28;20029;-57
2022/04/27 03:02:10;;;;;;;27.23;17.90;;;;;;;3.79;88.07;102330.81;5052244;28;20029;-58
2022/04/27 03:04:35;;;;;;;27.83;17.35;;;;;;;3.72;89.12;102324.56;5053023;28;20102;-59
2022/04/27 03:07:00;;;;;;;27.90;17.92;;;;;;;3.67;88.79;102333.44;5052770;28;20036;-58
2022/04/27 03:09:26;;;;;;;26.55;16.75;;;;;;;3.71;88.17;102322.88;5052266;28;20440;-58
2022/04/27 03:11:52;;;;;;;29.10;17.90;;;;;;;3.77;89.17;102329.38;5052457;28;20059;-58
2022/04/27 03:14:18;;;;;;;27.85;17.90;;;;;;;3.85;87.92;102329.94;5052232;28;20478;-58
2022/04/27 03:16:44;;;;;;;27.27;17.63;;;;;;;3.85;87.91;102334.56;5052191;28;20025;-58
2022/04/27 03:19:10;;;;;;;28.92;18.65;;;;;;;3.85;87.52;102340.03;5052239;28;20447;-58
2022/04/27 03:21:35;;;;;;;28.98;17.75;;;;;;;3.81;88.19;102333.34;5052429;28;20033;-58
2022/04/27 03:24:00;;;;;;;31.73;20.05;;;;;;;3.71;89.49;102344.78;5052300;28;20032;-59
2022/04/27 03:26:26;;;;;;;28.00;17.67;;;;;;;3.62;89.49;102337.91;5052072;28;20098;-57
2022/04/27 03:28:51;;;;;;;29.52;17.98;;;;;;;3.55;90.57;102343.44;5052432;28;20040;-58
2022/04/27 03:31:16;;;;;;;28.98;17.92;;;;;;;3.49;90.50;102342.44;5052028;28;20469;-56
2022/04/27 03:33:41;;;;;;;28.95;17.92;;;;;;;3.42;90.68;102341.63;5052344;28;20036;-57
2022/04/27 03:36:08;;;;;;;30.42;18.17;;;;;;;3.38;90.75;102343.97;5052383;28;20493;-57
2022/04/27 03:38:35;;;;;;;31.23;19.33;;;;;;;3.36;90.95;102342.53;5052419;28;20170;-56
2022/04/27 03:41:00;;;;;;;31.52;19.75;;;;;;;3.32;90.74;102344.00;5052418;28;20127;-56
2022/04/27 03:43:26;;;;;;;30.77;19.02;;;;;;;3.26;90.35;102349.31;5051724;28;20356;-57
2022/04/27 03:45:51;;;;;;;28.25;18.83;;;;;;;3.28;90.66;102351.81;5052199;28;20040;-57
2022/04/27 03:48:16;;;;;;;31.13;23.58;;;;;;;3.34;90.73;102350.97;5052452;28;20102;-57
2022/04/27 03:50:42;;;;;;;28.08;17.85;;;;;;;3.37;90.69;102355.13;5052075;28;20079;-55
2022/04/27 03:53:07;;;;;;;30.60;18.92;;;;;;;3.39;90.45;102359.31;5051387;28;20471;-57
2022/04/27 03:55:35;;;;;;;29.52;18.33;;;;;;;3.38;90.72;102363.13;5051892;28;20021;-57
2022/04/27 03:58:02;;;;;;;30.60;19.33;;;;;;;3.32;91.01;102366.75;5051806;28;20045;-57
2022/04/27 04:00:27;;;;;;;28.33;17.25;;;;;;;3.28;90.85;102368.22;5052107;28;20487;-59
2022/04/27 04:02:52;;;;;;;29.38;18.98;;;;;;;3.25;90.40;102369.50;5052282;28;20057;-58
2022/04/27 04:05:18;;;;;;;28.92;19.17;;;;;;;3.20;91.17;102369.34;5052270;28;20040;-59
2022/04/27 04:07:43;;;;;;;34.33;19.45;;;;;;;3.15;91.08;102371.88;5052077;28;20104;-58
2022/04/27 04:10:08;;;;;;;29.50;19.33;;;;;;;3.07;91.13;102366.66;5051761;28;20481;-58
2022/04/27 04:12:34;;;;;;;28.92;18.25;;;;;;;3.04;91.30;102376.16;5051712;28;20044;-59
2022/04/27 04:14:59;;;;;;;30.77;19.15;;;;;;;3.03;91.66;102373.63;5054252;28;20032;-59
2022/04/27 04:17:24;;;;;;;32.45;19.77;;;;;;;2.96;92.35;102374.50;5055040;28;20037;-59
2022/04/27 04:19:49;;;;;;;28.83;19.33;;;;;;;2.93;91.74;102379.56;5055613;28;20090;-59
2022/04/27 04:22:15;;;;;;;30.52;20.17;;;;;;;2.91;91.63;102374.31;5055476;28;20044;-58
2022/04/27 04:28:29;;;;;;;32.13;19.63;;;;;;;2.90;92.10;102389.03;5054853;28;20123;-58
2022/04/27 04:30:12;;;;;;;28.50;20.17;;;;;;;2.92;91.96;102391.56;5055522;28;20399;-58
2022/04/27 04:32:38;;;;;;;28.92;19.38;;;;;;;2.88;92.60;102384.84;5054968;28;20762;-58
2022/04/27 04:35:05;;;;;;;32.50;20.83;;;;;;;2.89;92.98;102392.84;5054965;28;20040;-58
2022/04/27 04:37:31;;;;;;;32.53;20.35;;;;;;;2.87;93.35;102396.84;5055369;28;20029;-58
2022/04/27 04:39:57;;;;;;;32.00;21.13;;;;;;;2.86;92.94;102408.81;5054947;28;20088;-59
2022/04/27 04:42:22;;;;;;;30.23;20.42;;;;;;;2.84;93.39;102400.81;5054915;28;20471;-59
2022/04/27 04:44:47;;;;;;;31.52;20.70;;;;;;;2.83;93.09;102407.38;5054310;28;20033;-58
2022/04/27 04:47:13;;;;;;;33.20;20.83;;;;;;;2.83;93.79;102412.84;5054792;28;20479;-59
2022/04/27 04:49:38;;;;;;;30.77;20.75;;;;;;;2.87;94.03;102418.72;5054744;28;20032;-60
2022/04/27 04:52:04;;;;;;;31.60;19.70;;;;;;;2.93;93.86;102421.41;5054842;28;20246;-59
2022/04/27 04:54:29;;;;;;;35.70;21.42;;;;;;;2.96;94.11;102415.50;5053985;28;20056;-59
2022/04/27 04:56:55;;;;;;;33.33;21.65;;;;;;;3.09;93.54;102427.47;5054378;28;20021;-59
2022/04/27 04:59:20;;;;;;;32.83;22.17;;;;;;;3.10;94.13;102423.66;5054501;28;20037;-59
2022/04/27 05:01:45;;;;;;;34.30;20.83;;;;;;;3.10;94.22;102429.97;5054455;28;20491;-59
2022/04/27 05:04:11;;;;;;;31.02;20.52;;;;;;;3.10;93.78;102426.41;5054546;28;20436;-59
2022/04/27 05:06:36;;;;;;;34.67;21.38;;;;;;;3.10;94.41;102427.22;5054500;28;20032;-59
2022/04/27 05:09:01;;;;;;;31.80;20.75;;;;;;;3.14;94.50;102435.84;5052896;28;20033;-59
2022/04/27 05:11:26;;;;;;;33.45;21.27;;;;;;;3.19;93.95;102427.84;5054568;28;20048;-59
2022/04/27 05:13:52;;;;;;;33.15;21.92;;;;;;;3.22;94.55;102432.03;5054628;28;20037;-59
2022/04/27 05:16:17;;;;;;;32.95;21.38;;;;;;;3.27;94.44;102441.25;5054079;28;20400;-59
2022/04/27 05:18:42;;;;;;;34.45;21.67;;;;;;;3.32;94.31;102428.81;5054254;28;20036;-58
2022/04/27 05:21:08;;;;;;;32.05;20.95;;;;;;;3.43;93.64;102436.34;5054152;28;20033;-58
2022/04/27 05:23:33;;;;;;;34.55;21.88;;;;;;;3.49;93.28;102431.88;5054343;28;20035;-59
2022/04/27 05:25:59;;;;;;;32.05;21.00;;;;;;;3.50;94.00;102431.66;5053817;28;20039;-58
2022/04/27 05:28:24;;;;;;;33.42;21.63;;;;;;;3.61;92.82;102437.50;5054006;28;20020;-58
2022/04/27 05:33:35;;;;;;;33.60;21.13;;;;;;;3.80;93.05;102446.66;5054054;28;20171;-58
2022/04/27 05:36:00;;;;;;;31.92;20.58;;;;;;;3.85;92.81;102450.41;5053848;28;20466;-58
2022/04/27 05:38:25;;;;;;;34.25;21.42;;;;;;;3.92;92.23;102452.25;5053490;28;20025;-59
2022/04/27 05:40:51;;;;;;;32.30;20.65;;;;;;;3.96;91.53;102457.06;5053692;28;20048;-59
2022/04/27 05:43:17;;;;;;;32.05;20.52;;;;;;;4.05;91.74;102454.91;5053605;28;20079;-58
2022/04/27 05:45:42;;;;;;;31.10;20.45;;;;;;;4.12;91.96;102463.91;5053779;28;20105;-59
2022/04/27 05:48:07;;;;;;;32.88;21.17;;;;;;;4.24;90.90;102463.19;5053943;28;20029;-58
2022/04/27 05:50:35;;;;;;;30.67;20.08;;;;;;;4.30;91.17;102463.09;5053826;28;20066;-59
2022/04/27 05:53:03;;;;;;;31.02;20.27;;;;;;;4.39;90.27;102466.41;5053838;28;20041;-59
2022/04/27 05:55:28;;;;;;;31.08;21.15;;;;;;;4.46;90.91;102467.19;5053480;28;20086;-59
2022/04/27 05:57:53;;;;;;;31.02;19.55;;;;;;;4.53;90.47;102470.69;5053403;28;20139;-58
2022/04/27 06:00:19;;;;;;;29.52;19.42;;;;;;;4.61;89.96;102463.25;5053430;28;20159;-59
2022/04/27 06:02:45;;;;;;;30.40;20.15;;;;;;;4.66;89.14;102471.63;5053593;28;20025;-59
2022/04/27 06:05:11;;;;;;;29.38;19.42;;;;;;;4.72;89.37;102475.38;5052861;28;20321;-58
2022/04/27 06:07:36;;;;;;;30.50;19.98;;;;;;;4.79;88.44;102477.00;5053337;28;20028;-59
2022/04/27 06:10:08;;;;;;;30.40;19.25;;;;;;;4.90;88.98;102478.13;5053126;28;20059;-59
2022/04/27 06:12:36;;;;;;;30.42;19.70;;;;;;;4.97;88.24;102478.06;5052883;28;20036;-59
2022/04/27 06:15:04;;;;;;;29.25;19.77;;;;;;;5.07;87.95;102478.38;5053370;28;20060;-58
2022/04/27 06:17:31;;;;;;;30.67;19.33;;;;;;;5.15;87.39;102483.56;5053159;28;20017;-59
2022/04/27 06:19:57;;;;;;;29.48;19.15;;;;;;;5.22;86.44;102486.22;5053427;28;20052;-59
2022/04/27 06:22:22;;;;;;;29.85;18.65;;;;;;;5.30;86.64;102485.06;5053134;28;20118;-58
2022/04/27 06:24:48;;;;;;;31.90;20.42;;;;;;;5.39;86.39;102486.41;5052790;28;20456;-58
2022/04/27 06:27:13;;;;;;;31.75;20.77;;;;;;;5.46;85.88;102492.69;5053142;28;20021;-59
2022/04/27 06:29:38;;;;;;;29.60;18.70;;;;;;;5.54;85.68;102496.16;5053322;28;20447;-59
2022/04/27 06:32:04;;;;;;;30.95;20.20;;;;;;;5.60;85.24;102498.84;5052812;28;20025;-58
2022/04/27 06:34:29;;;;;;;27.40;18.40;;;;;;;5.70;84.89;102503.75;5053300;28;20036;-58
2022/04/27 06:36:55;;;;;;;30.48;19.08;;;;;;;5.82;84.49;102503.78;5052195;28;20102;-59
2022/04/27 06:39:20;;;;;;;28.23;18.67;;;;;;;5.92;83.95;102501.31;5054207;28;20025;-54
2022/04/27 06:41:46;;;;;;;28.00;17.20;;;;;;;6.00;81.81;102510.34;5070370;28;20031;-53
2022/04/27 06:44:11;;;;;;;27.70;16.95;;;;;;;5.98;81.55;102505.03;5074590;28;20106;-56
2022/04/27 06:46:36;;;;;;;27.83;17.80;;;;;;;6.03;81.34;102507.97;5072537;28;20040;-56
2022/04/27 06:49:02;;;;;;;28.13;17.10;;;;;;;6.07;81.04;102511.91;5071536;28;20402;-56
2022/04/27 06:51:27;;;;;;;28.30;17.90;;;;;;;6.20;81.78;102510.88;5072606;28;20034;-58
2022/04/27 06:53:52;;;;;;;27.95;17.73;;;;;;;6.29;81.34;102513.28;5068685;28;20037;-57
2022/04/27 06:56:17;;;;;;;25.52;16.52;;;;;;;6.45;81.15;102517.25;5064944;28;20491;-58
2022/04/27 06:58:43;;;;;;;28.30;17.55;;;;;;;6.58;80.97;102519.78;5071248;28;20059;-58
2022/04/27 07:01:09;;;;;;;26.02;17.48;;;;;;;6.64;79.93;102518.81;5071645;28;20047;-58
2022/04/27 07:03:36;;;;;;;27.67;17.33;;;;;;;6.75;79.54;102521.81;5071964;28;20025;-58
2022/04/27 07:06:01;;;;;;;30.02;17.15;;;;;;;6.85;79.35;102525.63;5072506;28;20115;-59
2022/04/27 07:08:28;;;;;;;25.65;15.77;;;;;;;6.96;79.48;102523.97;5072426;28;20108;-58
2022/04/27 07:10:53;;;;;;;25.17;14.98;;;;;;;7.12;78.55;102521.56;5072293;28;20498;-58
2022/04/27 07:13:18;;;;;;;24.42;15.35;;;;;;;7.18;77.54;102529.69;5069614;28;20044;-57
2022/04/27 07:15:43;;;;;;;28.30;16.60;;;;;;;7.29;77.59;102524.41;5070102;28;20036;-58
2022/04/27 07:18:10;;;;;;;26.48;17.08;;;;;;;7.32;77.20;102529.44;5068836;28;20040;-58
2022/04/27 07:20:35;;;;;;;29.52;15.57;;;;;;;7.44;77.06;102521.13;5068677;28;20436;-58
2022/04/27 07:23:00;;;;;;;27.25;16.23;;;;;;;7.52;76.72;102531.75;5070044;28;20186;-56
2022/04/27 07:25:25;;;;;;;26.35;14.70;;;;;;;7.62;75.36;102534.72;5069612;28;20024;-59
2022/04/27 07:27:51;;;;;;;24.25;14.15;;;;;;;7.69;73.61;102537.34;5069285;28;20078;-59
2022/04/27 07:30:16;;;;;;;27.50;15.25;;;;;;;7.75;73.76;102541.88;5070190;28;20036;-59
2022/04/27 07:32:41;;;;;;;24.58;14.93;;;;;;;7.85;72.80;102545.91;5069963;28;20100;-57
2022/04/27 07:35:07;;;;;;;24.52;13.82;;;;;;;7.92;72.66;102538.31;5069831;28;20500;-57
2022/04/27 07:37:36;;;;;;;26.38;14.65;;;;;;;8.04;73.13;102541.00;5069622;28;20044;-58
2022/04/27 07:40:01;;;;;;;22.98;13.82;;;;;;;8.18;70.54;102542.38;5068473;28;20040;-58
2022/04/27 07:42:27;;;;;;;24.15;13.77;;;;;;;8.27;68.73;102549.16;5069692;28;20384;-59
2022/04/27 07:44:52;;;;;;;22.80;13.35;;;;;;;8.33;68.60;102543.72;5069869;28;20031;-59
2022/04/27 07:47:17;;;;;;;22.48;12.63;;;;;;;8.36;66.87;102537.72;5069955;28;20033;-59
2022/04/27 07:49:44;;;;;;;21.08;12.98;;;;;;;8.46;68.22;102543.41;5073778;28;20396;-59
2022/04/27 07:52:09;;;;;;;21.02;11.80;;;;;;;8.58;66.53;102538.69;5073668;28;20085;-59
2022/04/27 07:54:35;;;;;;;22.23;11.68;;;;;;;8.74;65.88;102545.28;5071437;28;20052;-57
2022/04/27 07:57:00;;;;;;;21.70;11.73;;;;;;;8.90;65.12;102540.81;5072883;28;20044;-58
2022/04/27 07:59:26;;;;;;;23.23;12.27;;;;;;;9.00;63.69;102542.91;5073331;28;20028;-58
2022/04/27 08:01:51;;;;;;;20.60;11.93;;;;;;;9.11;63.51;102543.06;5073548;28;20047;-56
2022/04/27 08:04:16;;;;;;;20.35;10.93;;;;;;;9.19;61.89;102548.97;5073344;28;20029;-58
2022/04/27 08:06:42;;;;;;;19.52;10.05;;;;;;;9.28;59.32;102554.06;5073239;28;20040;-60
2022/04/27 08:09:07;;;;;;;20.48;10.77;;;;;;;9.38;61.84;102553.38;5073297;28;20072;-58
2022/04/27 08:11:32;;;;;;;19.55;11.15;;;;;;;9.44;59.79;102557.84;5072516;28;20525;-58
2022/04/27 08:13:57;;;;;;;18.42;10.60;;;;;;;9.46;59.63;102559.25;5075303;28;20028;-59
2022/04/27 08:16:23;;;;;;;18.58;10.45;;;;;;;9.44;57.67;102563.38;5075060;28;20021;-58
2022/04/27 08:18:50;;;;;;;20.83;10.70;;;;;;;9.41;57.10;102561.97;5075456;28;20040;-59
2022/04/27 08:21:15;;;;;;;19.73;11.15;;;;;;;9.46;57.73;102556.50;5075688;28;20058;-59
2022/04/27 08:23:42;;;;;;;18.65;10.40;;;;;;;9.51;58.53;102561.25;5075169;28;20499;-59
2022/04/27 08:26:10;;;;;;;18.83;10.35;;;;;;;9.60;55.65;102561.66;5075075;28;20036;-59
2022/04/27 08:28:37;;;;;;;17.73;10.02;;;;;;;9.58;54.40;102555.53;5075112;28;20066;-60
2022/04/27 08:31:03;;;;;;;20.58;10.63;;;;;;;9.66;55.85;102560.63;5073925;28;20036;-60
2022/04/27 08:33:28;;;;;;;19.75;10.52;;;;;;;9.71;54.59;102563.47;5074266;28;20032;-60
2022/04/27 08:35:55;;;;;;;19.15;10.85;;;;;;;9.81;55.45;102568.25;5074370;28;20028;-58
2022/04/27 08:38:20;;;;;;;19.70;11.40;;;;;;;9.81;55.22;102566.34;5074620;28;20452;-59
2022/04/27 08:40:46;;;;;;;20.17;10.85;;;;;;;9.92;56.60;102563.69;5074171;28;20059;-58
2022/04/27 08:43:13;;;;;;;19.55;11.05;;;;;;;10.07;55.04;102565.75;5074162;28;20028;-59
2022/04/27 08:45:42;;;;;;;19.30;10.23;;;;;;;10.20;54.35;102576.41;5074487;28;20107;-58
2022/04/27 08:48:09;;;;;;;18.55;10.10;;;;;;;10.27;53.39;102565.97;5075376;28;20066;-58
2022/04/27 08:50:35;;;;;;;19.17;10.50;;;;;;;10.39;54.13;102568.59;5075411;28;20029;-58
2022/04/27 08:53:00;;;;;;;20.00;10.25;;;;;;;10.52;53.64;102566.50;5074790;28;20051;-58
2022/04/27 08:55:29;;;;;;;21.70;10.88;;;;;;;10.50;52.56;102574.22;5074540;28;20463;-58
2022/04/27 08:58:15;;;;;;;19.83;10.75;;;;;;;10.48;53.42;102565.38;5074605;28;20025;-58
2022/04/27 09:00:42;;;;;;;18.80;10.40;;;;;;;10.66;52.42;102567.75;5074074;28;20032;-59
2022/04/27 09:03:28;;;;;;;20.17;10.57;;;;;;;10.86;54.45;102569.00;5074554;28;20460;-58
2022/04/27 09:05:55;;;;;;;20.33;10.65;;;;;;;10.91;51.48;102567.06;5074585;28;20024;-59
2022/04/27 09:08:23;;;;;;;19.75;11.00;;;;;;;11.00;51.04;102580.44;5074585;28;20053;-59
2022/04/27 09:10:48;;;;;;;19.02;10.90;;;;;;;10.99;51.09;102576.00;5074175;28;20069;-59
2022/04/27 09:13:13;;;;;;;19.08;10.57;;;;;;;11.09;51.32;102573.31;5074527;28;20096;-59
2022/04/27 09:15:39;;;;;;;19.63;10.73;;;;;;;11.21;51.30;102578.63;5074259;28;20024;-59
2022/04/27 09:20:59;;;;;;;19.80;10.93;;;;;;;11.45;51.08;102565.19;5074839;28;20035;-59
2022/04/27 09:23:37;;;;;;;18.50;10.38;;;;;;;11.52;50.20;102573.28;5074277;28;20133;-59
2022/04/27 09:26:19;;;;;;;18.98;9.80;;;;;;;11.64;50.70;102562.75;5074131;28;20032;-59
2022/04/27 09:28:53;;;;;;;21.50;10.60;;;;;;;11.68;49.03;102571.38;5074166;28;20037;-59
2022/04/27 09:31:34;;;;;;;19.33;9.88;;;;;;;11.65;50.33;102567.22;5074259;28;20035;-59
2022/04/27 09:34:02;;;;;;;18.48;10.52;;;;;;;11.74;48.65;102570.31;5074102;28;20027;-59
2022/04/27 09:36:28;;;;;;;20.50;10.50;;;;;;;11.84;47.90;102573.13;5073733;28;20032;-59
2022/04/27 09:38:56;;;;;;;20.33;10.50;;;;;;;11.88;47.98;102567.84;5073854;28;20441;-59
2022/04/27 09:41:42;;;;;;;18.10;10.13;;;;;;;11.98;49.04;102573.47;5073780;28;20395;-59
2022/04/27 09:44:12;;;;;;;19.77;10.73;;;;;;;12.14;47.59;102573.47;5073817;28;20085;-57
2022/04/27 09:46:40;;;;;;;20.45;10.43;;;;;;;12.23;46.48;102574.59;5073874;28;20029;-58
2022/04/27 09:49:09;;;;;;;21.35;10.43;;;;;;;12.30;46.95;102574.34;5073447;28;20052;-58
2022/04/27 09:51:35;;;;;;;21.77;10.90;;;;;;;12.12;45.71;102576.53;5073570;28;20032;-58
2022/04/27 09:54:02;;;;;;;19.65;10.90;;;;;;;11.98;46.55;102573.47;5073526;28;20076;-57
2022/04/27 09:56:32;;;;;;;20.95;10.93;;;;;;;12.10;46.87;102572.34;5073645;28;20047;-59
2022/04/27 09:59:03;;;;;;;20.25;10.90;;;;;;;12.29;46.98;102570.72;5073786;28;20024;-59
2022/04/27 10:01:31;;;;;;;19.35;10.82;;;;;;;12.52;46.01;102571.31;5073597;28;20040;-58
2022/04/27 10:03:57;;;;;;;21.05;11.20;;;;;;;12.63;45.64;102569.34;5073308;28;20435;-58
2022/04/27 10:06:23;;;;;;;20.55;11.68;;;;;;;12.74;45.43;102581.31;5073597;28;20044;-58
2022/04/27 10:08:51;;;;;;;20.83;11.90;;;;;;;12.70;44.77;102574.63;5073372;28;20025;-58
2022/04/27 10:11:17;;;;;;;21.70;10.82;;;;;;;12.69;44.67;102572.97;5072216;28;20103;-58
2022/04/27 10:13:43;;;;;;;23.05;12.13;;;;;;;12.56;44.71;102575.22;5073085;28;20067;-58
2022/04/27 10:16:08;;;;;;;21.25;11.93;;;;;;;12.59;45.30;102569.06;5072854;28;20554;-58
2022/04/27 10:18:34;;;;;;;21.58;11.73;;;;;;;12.63;45.13;102566.56;5073373;28;20108;-59
2022/04/27 10:21:01;;;;;;;20.52;11.60;;;;;;;12.68;44.85;102572.16;5073028;28;20154;-59
2022/04/27 10:23:28;;;;;;;21.63;12.20;;;;;;;12.63;44.58;102574.91;5072971;28;20028;-59
2022/04/27 10:26:07;;;;;;;22.60;12.10;;;;;;;12.70;45.21;102567.16;5072989;28;20071;-59
2022/04/27 10:28:35;;;;;;;19.92;11.57;;;;;;;12.71;45.37;102543.81;5072993;28;20166;-59
2022/04/27 10:31:07;;;;;;;21.13;12.35;;;;;;;12.73;44.77;102555.47;5073297;28;20024;-59
2022/04/27 10:33:43;;;;;;;22.95;12.60;;;;;;;12.82;44.85;102550.19;5073012;28;20112;-59
2022/04/27 10:36:37;;;;;;;20.80;13.10;;;;;;;12.95;45.50;102543.22;5072476;28;20433;-58
2022/04/27 10:39:09;;;;;;;23.13;12.70;;;;;;;13.13;44.41;102564.00;5072595;28;20513;-57
2022/04/27 10:41:34;;;;;;;20.25;12.50;;;;;;;13.36;44.06;102551.47;5072694;28;20028;-58
2022/04/27 10:43:59;;;;;;;21.23;12.15;;;;;;;13.61;43.70;102546.94;5072728;28;20108;-58
2022/04/27 10:46:38;;;;;;;20.35;12.77;;;;;;;13.66;44.05;102555.22;5072640;28;20324;-58
2022/04/27 10:49:23;;;;;;;21.02;11.82;;;;;;;13.62;45.12;102550.53;5072630;28;20050;-58
2022/04/27 10:52:03;;;;;;;22.10;12.63;;;;;;;13.37;43.63;102538.38;5072393;28;20111;-58
2022/04/27 10:54:31;;;;;;;21.42;12.48;;;;;;;13.37;42.82;102550.31;5072223;28;20052;-58
2022/04/27 10:57:14;;;;;;;21.75;12.77;;;;;;;13.49;43.85;102546.41;5072393;28;20044;-59
2022/04/27 10:59:51;;;;;;;20.52;12.07;;;;;;;13.46;43.11;102541.44;5072307;28;20141;-59
2022/04/27 11:02:41;;;;;;;22.08;12.80;;;;;;;13.41;44.04;102545.09;5072239;28;20368;-58
2022/04/27 11:05:09;;;;;;;21.65;12.77;;;;;;;13.39;43.00;102550.09;5072575;28;20099;-59
2022/04/27 11:07:58;;;;;;;19.98;12.55;;;;;;;13.52;43.21;102543.91;5072261;28;20036;-59
2022/04/27 11:10:24;;;;;;;20.92;11.73;;;;;;;13.68;42.85;102549.41;5072274;28;20141;-58
2022/04/27 11:12:55;;;;;;;19.83;12.02;;;;;;;13.57;42.52;102546.66;5072203;28;20080;-58
2022/04/27 11:15:23;;;;;;;22.95;12.13;;;;;;;13.87;42.21;102547.63;5072218;28;20029;-58
2022/04/27 11:18:03;;;;;;;23.33;12.90;;;;;;;13.89;41.67;102537.03;5072368;28;20459;-59
2022/04/27 11:20:29;;;;;;;22.20;12.68;;;;;;;14.17;41.26;102542.97;5072170;28;20021;-59
2022/04/27 11:22:55;;;;;;;21.80;12.55;;;;;;;14.25;41.22;102535.97;5073044;28;20021;-58
2022/04/27 11:25:27;;;;;;;22.17;12.32;;;;;;;14.46;41.71;102536.63;5076295;28;20043;-59
2022/04/27 11:27:52;;;;;;;22.63;12.88;;;;;;;14.58;40.83;102541.84;5076054;28;20047;-59